Time;durP1;ratioP1;P1;durP2;ratioP2;P2;SDS_P1;SDS_P2;PMS_P1;PMS_P2;Temp;Humidity;BMP_temperature;BMP_pressure;BME280_temperature;BME280_humidity;BME280_pressure;Samples;Min_cycle;Max_cycle;Signal;HPM_P1;HPM_P2
2024/01/26 00:01:08;;;;;;;40.67;27.42;;;;;;;9.25;100.00;102301.13;5044901;28;20044;-68
2024/01/26 00:03:33;;;;;;;41.25;25.65;;;;;;;9.25;100.00;102303.75;5044424;28;20021;-67
2024/01/26 00:05:59;;;;;;;41.05;26.60;;;;;;;9.25;100.00;102301.13;5037966;28;20486;-67
2024/01/26 00:08:25;;;;;;;37.67;26.27;;;;;;;9.25;100.00;102301.97;5044458;28;20060;-67
2024/01/26 00:10:50;;;;;;;40.58;25.83;;;;;;;9.26;100.00;102297.53;5039638;28;20133;-68
2024/01/26 00:13:15;;;;;;;39.55;25.50;;;;;;;9.26;100.00;102295.72;5049393;28;20505;-67
2024/01/26 00:15:40;;;;;;;38.58;25.70;;;;;;;9.32;100.00;102295.19;5038899;28;20033;-68
2024/01/26 00:18:06;;;;;;;39.10;26.65;;;;;;;9.34;100.00;102283.63;5041134;28;20116;-68
2024/01/26 00:20:31;;;;;;;42.03;26.02;;;;;;;9.35;100.00;102274.72;5038769;28;20033;-67
2024/01/26 00:22:56;;;;;;;41.85;27.05;;;;;;;9.36;100.00;102276.38;5043763;28;20584;-68
2024/01/26 00:25:23;;;;;;;34.53;25.23;;;;;;;9.38;100.00;102269.16;5042186;28;20028;-67
2024/01/26 00:27:48;;;;;;;35.65;25.40;;;;;;;9.37;100.00;102273.59;5043679;28;20025;-67
2024/01/26 00:30:14;;;;;;;36.10;25.55;;;;;;;9.39;100.00;102284.09;5041534;28;20797;-67
2024/01/26 00:32:39;;;;;;;35.83;25.42;;;;;;;9.39;100.00;102279.63;5036969;28;20119;-67
2024/01/26 00:35:05;;;;;;;36.30;25.17;;;;;;;9.39;100.00;102284.91;5038397;28;20029;-68
2024/01/26 00:37:31;;;;;;;34.10;24.13;;;;;;;9.39;100.00;102274.31;5041518;28;20095;-68
2024/01/26 00:39:57;;;;;;;35.33;24.00;;;;;;;9.39;100.00;102282.28;5036891;28;20037;-67
2024/01/26 00:42:22;;;;;;;34.03;23.35;;;;;;;9.39;100.00;102284.91;5039774;28;20016;-67
2024/01/26 00:44:48;;;;;;;34.42;23.15;;;;;;;9.38;100.00;102272.63;5041916;28;20032;-67
2024/01/26 00:47:13;;;;;;;31.48;23.17;;;;;;;9.39;100.00;102273.47;5035240;28;20040;-67
2024/01/26 00:49:39;;;;;;;33.92;23.23;;;;;;;9.38;100.00;102261.19;5046572;28;20715;-68
2024/01/26 00:52:04;;;;;;;31.63;22.27;;;;;;;9.38;100.00;102259.38;5044177;28;20056;-67
2024/01/26 00:54:30;;;;;;;30.00;21.83;;;;;;;9.39;100.00;102257.56;5043171;28;20036;-67
2024/01/26 00:56:55;;;;;;;32.95;22.33;;;;;;;9.38;100.00;102256.72;5043493;28;20025;-68
2024/01/26 00:59:20;;;;;;;29.02;20.88;;;;;;;9.38;100.00;102261.19;5037474;28;20407;-67
2024/01/26 01:01:46;;;;;;;31.13;21.25;;;;;;;9.41;100.00;102267.06;5033826;28;20029;-68
2024/01/26 01:04:11;;;;;;;28.38;21.17;;;;;;;9.41;100.00;102259.13;5040284;28;20644;-68
2024/01/26 01:06:37;;;;;;;29.50;21.10;;;;;;;9.39;100.00;102263.72;5030464;28;20405;-68
2024/01/26 01:09:02;;;;;;;27.40;19.42;;;;;;;9.41;100.00;102261.78;5045694;28;20031;-68
2024/01/26 01:11:27;;;;;;;24.67;19.35;;;;;;;9.41;100.00;102256.47;5037077;28;20116;-67
2024/01/26 01:13:53;;;;;;;26.02;19.67;;;;;;;9.43;100.00;102259.00;5039663;28;20066;-68
2024/01/26 01:16:18;;;;;;;26.95;20.63;;;;;;;9.43;100.00;102254.53;5042689;28;20600;-68
2024/01/26 01:18:43;;;;;;;26.92;19.55;;;;;;;9.44;100.00;102260.66;5037200;28;20033;-67
2024/01/26 01:21:09;;;;;;;25.70;18.02;;;;;;;9.45;100.00;102243.78;5034834;28;20391;-67
2024/01/26 01:23:35;;;;;;;25.92;17.60;;;;;;;9.46;100.00;102245.47;5035601;28;20108;-67
2024/01/26 01:26:01;;;;;;;26.55;18.17;;;;;;;9.39;100.00;102237.19;5040138;28;20590;-68
2024/01/26 01:28:26;;;;;;;23.33;17.38;;;;;;;9.46;100.00;102234.88;5042858;28;20029;-68
2024/01/26 01:30:52;;;;;;;21.92;17.85;;;;;;;9.44;100.00;102227.03;5038298;28;20025;-68
2024/01/26 01:33:17;;;;;;;23.17;16.48;;;;;;;9.42;100.00;102221.03;5040659;28;20060;-68
2024/01/26 01:35:42;;;;;;;22.23;16.73;;;;;;;9.43;100.00;102227.19;5036353;28;20133;-68
2024/01/26 01:38:08;;;;;;;21.65;15.77;;;;;;;9.42;100.00;102222.84;5045846;28;20024;-68
2024/01/26 01:40:33;;;;;;;19.73;15.98;;;;;;;9.41;100.00;102223.81;5038477;28;20592;-68
2024/01/26 01:42:59;;;;;;;20.05;15.38;;;;;;;9.40;100.00;102228.28;5040379;28;20067;-68
2024/01/26 01:45:24;;;;;;;18.77;15.05;;;;;;;9.40;100.00;102214.19;5041433;28;20060;-67
2024/01/26 01:47:49;;;;;;;19.02;14.30;;;;;;;9.40;100.00;102214.19;5048154;28;20029;-67
2024/01/26 01:50:15;;;;;;;20.90;14.77;;;;;;;9.41;100.00;102216.69;5052843;28;20071;-68
2024/01/26 01:52:44;;;;;;;21.90;14.63;;;;;;;9.41;100.00;102216.69;5046001;28;20635;-68
2024/01/26 01:55:11;;;;;;;17.77;14.13;;;;;;;9.41;100.00;102202.59;5044593;28;20393;-67
2024/01/26 01:57:40;;;;;;;16.80;12.57;;;;;;;9.41;100.00;102194.66;5049209;28;20207;-68
2024/01/26 02:00:07;;;;;;;;;;;;;;;9.46;100.00;102193.28;5046600;28;20033;-68
2024/01/26 02:02:32;;;;;;;13.73;10.88;;;;;;;9.41;100.00;102182.22;5038993;28;20630;-68
2024/01/26 02:04:58;;;;;;;13.90;10.77;;;;;;;9.41;100.00;102189.34;5035381;28;20091;-67
2024/01/26 02:07:24;;;;;;;13.90;10.27;;;;;;;9.41;100.00;102192.84;5040987;28;20387;-68
2024/01/26 02:09:50;;;;;;;13.48;9.85;;;;;;;9.42;100.00;102194.50;5046109;28;20089;-67
2024/01/26 02:12:15;;;;;;;13.40;9.60;;;;;;;9.42;100.00;102189.22;5043645;28;20032;-68
2024/01/26 02:14:40;;;;;;;11.80;9.50;;;;;;;9.44;100.00;102181.97;5039439;28;20487;-68
2024/01/26 02:17:06;;;;;;;13.48;9.70;;;;;;;9.47;100.00;102183.50;5053583;28;20013;-68
2024/01/26 02:19:32;;;;;;;13.38;8.98;;;;;;;9.47;100.00;102184.34;5045104;28;20121;-68
2024/01/26 02:21:57;;;;;;;12.05;8.82;;;;;;;9.50;100.00;102180.59;5043301;28;20495;-68
2024/01/26 02:24:23;;;;;;;14.25;8.75;;;;;;;9.50;100.00;102178.78;5043116;28;20021;-67
2024/01/26 02:26:48;;;;;;;10.43;8.32;;;;;;;9.53;100.00;102164.41;5041981;28;20021;-68
2024/01/26 02:29:14;;;;;;;10.48;8.15;;;;;;;9.52;100.00;102174.19;5051545;28;20458;-68
2024/01/26 02:31:39;;;;;;;12.23;8.30;;;;;;;9.53;100.00;102167.06;5051042;28;20033;-68
2024/01/26 02:34:06;;;;;;;13.05;7.97;;;;;;;9.50;100.00;102154.91;5033502;28;20460;-68
2024/01/26 02:36:34;;;;;;;10.07;7.60;;;;;;;9.54;100.00;102151.06;5029568;28;20637;-68
2024/01/26 02:38:59;;;;;;;10.85;8.02;;;;;;;9.54;100.00;102145.75;5040397;28;20556;-68
2024/01/26 02:41:25;;;;;;;8.93;7.82;;;;;;;9.56;100.00;102143.81;5044408;28;20025;-68
2024/01/26 02:43:50;;;;;;;10.07;7.57;;;;;;;9.56;100.00;102149.13;5044403;28;20033;-68
2024/01/26 02:46:16;;;;;;;10.18;7.72;;;;;;;9.58;100.00;102157.78;5042929;28;20047;-68
2024/01/26 02:48:41;;;;;;;9.75;7.53;;;;;;;9.58;100.00;102152.47;5043578;28;20044;-68
2024/01/26 02:51:06;;;;;;;9.48;7.40;;;;;;;9.60;100.00;102147.88;5043630;28;20414;-68
2024/01/26 02:53:32;;;;;;;8.55;6.88;;;;;;;9.62;100.00;102139.78;5038829;28;20032;-68
2024/01/26 02:55:57;;;;;;;9.30;7.13;;;;;;;9.61;100.00;102133.63;5049667;28;20120;-68
2024/01/26 02:58:23;;;;;;;10.32;7.03;;;;;;;9.61;100.00;102125.69;5041619;28;20033;-68
2024/01/26 03:00:48;;;;;;;8.60;7.22;;;;;;;9.62;100.00;102122.06;5042873;28;20836;-68
2024/01/26 03:03:14;;;;;;;10.57;7.45;;;;;;;9.62;100.00;102113.25;5041089;28;20060;-68
2024/01/26 03:05:40;;;;;;;8.20;6.75;;;;;;;9.67;100.00;102118.16;5035906;28;20818;-68
2024/01/26 03:08:06;;;;;;;11.35;7.38;;;;;;;9.67;100.00;102120.81;5048086;28;20056;-68
2024/01/26 03:10:31;;;;;;;10.38;6.95;;;;;;;9.70;100.00;102115.25;5044538;28;20183;-68
2024/01/26 03:12:56;;;;;;;10.48;6.95;;;;;;;9.71;100.00;102130.19;5038573;28;20098;-68
2024/01/26 03:15:22;;;;;;;8.68;6.70;;;;;;;9.73;100.00;102113.16;5042873;28;20029;-68
2024/01/26 03:17:47;;;;;;;10.38;6.95;;;;;;;9.75;100.00;102110.38;5043778;28;20025;-68
2024/01/26 03:20:13;;;;;;;10.15;7.50;;;;;;;9.77;100.00;102092.50;5043020;28;20820;-68
2024/01/26 03:22:38;;;;;;;12.02;6.63;;;;;;;9.78;100.00;102083.56;5044005;28;20029;-68
2024/01/26 03:25:04;;;;;;;9.93;6.85;;;;;;;9.77;100.00;102080.06;5048535;28;20024;-69
2024/01/26 03:27:29;;;;;;;9.43;6.60;;;;;;;9.76;100.00;102080.22;5042580;28;20080;-67
2024/01/26 03:29:55;;;;;;;12.27;7.47;;;;;;;9.77;100.00;102072.13;5042918;28;20573;-67
2024/01/26 03:32:20;;;;;;;10.45;7.07;;;;;;;9.78;100.00;102067.66;5041903;28;20078;-68
2024/01/26 03:34:46;;;;;;;9.80;7.20;;;;;;;9.78;100.00;102065.84;5034540;28;20064;-68
2024/01/26 03:37:11;;;;;;;8.20;7.10;;;;;;;9.79;100.00;102064.03;5035855;28;20098;-68
2024/01/26 03:39:37;;;;;;;9.48;7.57;;;;;;;9.82;100.00;102059.28;5037097;28;20445;-67
2024/01/26 03:42:02;;;;;;;9.70;7.70;;;;;;;9.85;100.00;102058.19;5038963;28;20577;-68
2024/01/26 03:44:28;;;;;;;11.00;8.27;;;;;;;9.87;100.00;102061.56;5044269;28;20082;-68
2024/01/26 03:46:53;;;;;;;9.15;7.40;;;;;;;9.87;100.00;102053.59;5039292;28;21343;-68
2024/01/26 03:49:18;;;;;;;9.45;7.88;;;;;;;9.88;100.00;102060.56;5042146;28;20086;-68
2024/01/26 03:51:44;;;;;;;10.35;7.90;;;;;;;9.89;100.00;102057.78;5032922;28;20029;-67
2024/01/26 03:54:09;;;;;;;9.45;7.70;;;;;;;9.91;100.00;102047.03;5039824;28;20112;-68
2024/01/26 03:56:34;;;;;;;11.57;7.70;;;;;;;9.93;100.00;102024.69;5038384;28;20144;-68
2024/01/26 03:59:00;;;;;;;10.60;8.02;;;;;;;9.94;100.00;102036.97;5039034;28;20013;-68
2024/01/26 04:01:25;;;;;;;11.32;7.43;;;;;;;9.96;100.00;102034.19;5038390;28;20033;-68
2024/01/26 04:03:50;;;;;;;9.13;7.18;;;;;;;9.98;100.00;102044.66;5037650;28;20810;-68
2024/01/26 04:06:16;;;;;;;8.60;7.35;;;;;;;10.00;100.00;102040.06;5031794;28;20029;-68
2024/01/26 04:08:41;;;;;;;10.75;7.07;;;;;;;10.00;100.00;102035.59;5040523;28;20140;-68
2024/01/26 04:11:06;;;;;;;11.30;7.40;;;;;;;10.02;100.00;102027.50;5031746;28;20052;-68
2024/01/26 04:13:31;;;;;;;11.10;7.65;;;;;;;10.02;100.00;102016.88;5034079;28;20111;-69
2024/01/26 04:15:57;;;;;;;10.65;6.43;;;;;;;10.01;100.00;102010.72;5034027;28;20031;-68
2024/01/26 04:18:22;;;;;;;9.48;7.25;;;;;;;10.02;100.00;102009.75;5036477;28;20087;-68
2024/01/26 04:20:51;;;;;;;11.50;6.85;;;;;;;10.04;100.00;101999.00;5039732;28;20382;-68
2024/01/26 04:23:16;;;;;;;9.82;7.05;;;;;;;10.03;100.00;101992.00;5032310;28;20107;-68
2024/01/26 04:25:42;;;;;;;9.25;7.05;;;;;;;10.03;100.00;101990.19;5037787;28;20029;-68
2024/01/26 04:28:07;;;;;;;8.40;7.18;;;;;;;10.07;100.00;101988.94;5037238;28;20586;-69
2024/01/26 04:30:34;;;;;;;13.00;7.47;;;;;;;10.05;100.00;101977.63;5037284;28;20655;-68
2024/01/26 04:33:00;;;;;;;10.88;7.68;;;;;;;10.06;100.00;101979.31;5032725;28;20040;-68
2024/01/26 04:35:25;;;;;;;10.45;8.02;;;;;;;10.07;100.00;101988.94;5034721;28;20033;-68
2024/01/26 04:37:51;;;;;;;12.43;7.95;;;;;;;10.07;100.00;101980.13;5034948;28;20544;-68
2024/01/26 04:40:17;;;;;;;11.90;8.10;;;;;;;10.07;100.00;101962.41;5038324;28;20083;-68
2024/01/26 04:42:42;;;;;;;10.75;8.32;;;;;;;10.07;100.00;101972.19;5038643;28;20033;-67
2024/01/26 04:45:08;;;;;;;12.07;8.35;;;;;;;10.09;100.00;101964.91;5037874;28;20025;-68
2024/01/26 04:47:33;;;;;;;13.55;9.15;;;;;;;10.09;100.00;101981.66;5037142;28;20025;-68
2024/01/26 04:49:59;;;;;;;12.63;8.80;;;;;;;10.08;100.00;101985.31;5035172;28;20044;-68
2024/01/26 04:52:24;;;;;;;11.05;8.85;;;;;;;10.09;100.00;101986.97;5037862;28;20390;-68
2024/01/26 04:54:49;;;;;;;11.60;9.30;;;;;;;10.09;100.00;101992.28;5034347;28;20028;-68
2024/01/26 04:57:15;;;;;;;12.63;8.90;;;;;;;10.07;100.00;101980.97;5053962;28;20077;-68
2024/01/26 04:59:40;;;;;;;12.38;9.38;;;;;;;10.02;100.00;101974.41;5040158;28;20811;-68
2024/01/26 05:02:05;;;;;;;14.10;10.07;;;;;;;9.98;100.00;101981.81;5044873;28;20021;-68
2024/01/26 05:04:31;;;;;;;15.77;10.20;;;;;;;10.00;100.00;101974.56;5038384;28;20052;-68
2024/01/26 05:06:56;;;;;;;12.85;10.30;;;;;;;9.97;100.00;101966.88;5040928;28;20044;-68
2024/01/26 05:09:22;;;;;;;13.20;10.43;;;;;;;9.97;100.00;101950.94;5045410;28;20498;-68
2024/01/26 05:11:48;;;;;;;15.45;10.88;;;;;;;9.96;100.00;101949.28;5050375;28;20090;-68
2024/01/26 05:14:13;;;;;;;15.90;10.68;;;;;;;9.94;100.00;101945.94;5043346;28;20439;-68
2024/01/26 05:16:38;;;;;;;17.05;11.50;;;;;;;9.89;100.00;101926.94;5038239;28;20040;-68
2024/01/26 05:19:04;;;;;;;14.45;10.43;;;;;;;9.92;100.00;101935.44;5054748;28;20033;-68
2024/01/26 05:21:29;;;;;;;14.43;10.60;;;;;;;9.94;100.00;101933.50;5043101;28;20665;-68
2024/01/26 05:23:55;;;;;;;19.73;11.65;;;;;;;9.95;100.00;101929.03;5045690;28;20556;-68
2024/01/26 05:26:20;;;;;;;13.15;10.98;;;;;;;9.95;100.00;101918.41;5039541;28;20128;-68
2024/01/26 05:28:45;;;;;;;16.60;11.48;;;;;;;9.89;100.00;101905.72;5039371;28;20076;-68
2024/01/26 05:31:11;;;;;;;13.50;11.10;;;;;;;9.93;100.00;101915.06;5053080;28;20037;-68
2024/01/26 05:33:37;;;;;;;17.10;10.95;;;;;;;9.91;100.00;101914.38;5040589;28;20037;-68
2024/01/26 05:36:03;;;;;;;15.57;11.57;;;;;;;9.88;100.00;101909.34;5034016;28;20017;-68
2024/01/26 05:38:28;;;;;;;16.67;11.68;;;;;;;9.83;100.00;101909.78;5041189;28;20028;-67
2024/01/26 05:40:53;;;;;;;14.43;11.32;;;;;;;9.80;100.00;101902.06;5045354;28;20036;-67
2024/01/26 05:43:19;;;;;;;13.65;10.70;;;;;;;9.78;100.00;101889.91;5038328;28;20047;-67
2024/01/26 05:45:44;;;;;;;15.45;11.05;;;;;;;9.75;100.00;101892.84;5046975;28;20389;-67
2024/01/26 05:48:09;;;;;;;14.40;10.80;;;;;;;9.69;100.00;101888.09;5037521;28;20017;-67
2024/01/26 05:50:35;;;;;;;15.05;10.95;;;;;;;9.65;100.00;101889.38;5048688;28;20074;-67
2024/01/26 05:53:02;;;;;;;14.50;10.75;;;;;;;9.63;100.00;101892.16;5047952;28;20020;-67
2024/01/26 05:55:28;;;;;;;12.82;11.05;;;;;;;9.60;100.00;101895.09;5039713;28;20028;-67
2024/01/26 05:57:53;;;;;;;13.48;10.63;;;;;;;9.55;100.00;101889.38;5048749;28;20028;-67
2024/01/26 06:00:18;;;;;;;15.57;11.05;;;;;;;9.53;100.00;101893.94;5044734;28;20958;-65
2024/01/26 06:02:45;;;;;;;13.60;11.05;;;;;;;9.46;100.00;101883.06;5050880;28;20099;-66
2024/01/26 06:05:10;;;;;;;17.13;12.05;;;;;;;9.42;100.00;101886.13;5039435;28;20060;-66
2024/01/26 06:07:36;;;;;;;17.58;11.98;;;;;;;9.40;100.00;101877.47;5039508;28;20114;-66
2024/01/26 06:10:01;;;;;;;19.58;12.85;;;;;;;9.36;100.00;101873.44;5053175;28;20031;-66
2024/01/26 06:12:26;;;;;;;16.40;11.70;;;;;;;9.35;100.00;101880.53;5047256;28;21385;-66
2024/01/26 06:14:51;;;;;;;18.50;12.65;;;;;;;9.38;100.00;101879.44;5040100;28;20112;-66
2024/01/26 06:17:17;;;;;;;18.38;12.30;;;;;;;9.38;100.00;101871.47;5045660;28;20017;-66
2024/01/26 06:19:42;;;;;;;17.52;12.30;;;;;;;9.35;100.00;101875.25;5050777;28;20020;-66
2024/01/26 06:22:08;;;;;;;17.23;12.70;;;;;;;9.36;100.00;101863.66;5056793;28;20090;-66
2024/01/26 06:24:33;;;;;;;18.90;12.98;;;;;;;9.36;100.00;101860.16;5048726;28;20479;-66
2024/01/26 06:26:58;;;;;;;17.38;13.25;;;;;;;9.36;100.00;101857.53;5041624;28;20071;-67
2024/01/26 06:29:23;;;;;;;16.52;12.32;;;;;;;9.38;100.00;101868.81;5032612;28;20029;-66
2024/01/26 06:31:49;;;;;;;18.15;13.82;;;;;;;9.37;100.00;101867.16;5045846;28;20064;-66
2024/01/26 06:34:14;;;;;;;15.10;12.68;;;;;;;9.42;100.00;101859.63;5041577;28;20106;-67
2024/01/26 06:36:41;;;;;;;17.65;13.30;;;;;;;9.42;100.00;101864.91;5037652;28;20547;-66
2024/01/26 06:39:08;;;;;;;17.95;13.23;;;;;;;9.39;100.00;101862.53;5043875;28;20636;-66
2024/01/26 06:41:34;;;;;;;17.85;13.25;;;;;;;9.40;100.00;101862.41;5040735;28;20597;-66
2024/01/26 06:43:59;;;;;;;19.30;13.23;;;;;;;9.40;100.00;101867.72;5041827;28;20040;-66
2024/01/26 06:46:25;;;;;;;16.55;12.85;;;;;;;9.42;100.00;101855.16;5048715;28;20067;-67
2024/01/26 06:48:50;;;;;;;15.13;11.75;;;;;;;9.43;100.00;101848.88;5041876;28;20039;-67
2024/01/26 06:51:16;;;;;;;16.48;12.48;;;;;;;9.43;100.00;101840.91;5041638;28;20021;-67
2024/01/26 06:53:41;;;;;;;18.52;12.48;;;;;;;9.48;100.00;101843.97;5036281;28;20387;-66
2024/01/26 06:56:07;;;;;;;16.58;12.43;;;;;;;9.47;100.00;101846.78;5039878;28;20025;-65
2024/01/26 06:58:32;;;;;;;17.70;12.68;;;;;;;9.46;100.00;101835.34;5047639;28;20041;-66
2024/01/26 07:00:58;;;;;;;18.00;13.15;;;;;;;9.46;100.00;101840.63;5048239;28;20062;-66
2024/01/26 07:03:24;;;;;;;18.08;12.05;;;;;;;9.46;100.00;101848.59;5044678;28;20060;-66
2024/01/26 07:05:50;;;;;;;17.35;13.05;;;;;;;9.45;100.00;101844.25;5041659;28;20025;-66
2024/01/26 07:08:15;;;;;;;17.42;12.45;;;;;;;9.46;100.00;101840.63;5036372;28;20107;-67
2024/01/26 07:10:41;;;;;;;18.10;12.93;;;;;;;9.47;100.00;101836.16;5038685;28;20032;-66
2024/01/26 07:13:06;;;;;;;18.27;13.40;;;;;;;9.47;100.00;101834.34;5037365;28;20035;-66
2024/01/26 07:15:31;;;;;;;16.92;12.48;;;;;;;9.47;100.00;101818.44;5035120;28;20017;-67
2024/01/26 07:17:57;;;;;;;17.85;13.45;;;;;;;9.46;100.00;101824.72;5039159;28;20025;-67
2024/01/26 07:20:23;;;;;;;18.25;14.10;;;;;;;9.46;100.00;101819.41;5039205;28;20733;-67
2024/01/26 07:22:49;;;;;;;18.45;13.15;;;;;;;9.49;100.00;101819.13;5035611;28;20034;-67
2024/01/26 07:25:18;;;;;;;22.70;14.77;;;;;;;9.50;100.00;101820.81;5043327;28;20032;-67
2024/01/26 07:27:47;;;;;;;19.80;14.27;;;;;;;9.54;100.00;101831.97;5037351;28;20038;-67
2024/01/26 07:30:13;;;;;;;18.67;13.70;;;;;;;9.60;100.00;101842.88;5039007;28;20104;-67
2024/01/26 07:32:39;;;;;;;18.40;14.23;;;;;;;9.65;100.00;101823.06;5039926;28;20294;-67
2024/01/26 07:35:06;;;;;;;20.58;14.00;;;;;;;9.67;100.00;101829.06;5033988;28;20025;-67
2024/01/26 07:37:32;;;;;;;20.85;14.25;;;;;;;9.73;100.00;101817.88;5037390;28;20830;-67
2024/01/26 07:39:57;;;;;;;17.95;13.23;;;;;;;9.73;100.00;101813.41;5034410;28;20239;-67
2024/01/26 07:42:22;;;;;;;17.65;13.18;;;;;;;9.80;100.00;101838.38;5046463;28;20450;-67
2024/01/26 07:44:48;;;;;;;20.13;14.05;;;;;;;9.88;100.00;101830.59;5047033;28;20040;-67
2024/01/26 07:47:13;;;;;;;20.10;13.15;;;;;;;9.92;100.00;101836.44;5042389;28;20112;-67
2024/01/26 07:49:38;;;;;;;18.42;13.27;;;;;;;9.98;100.00;101851.78;5046662;28;20040;-67
2024/01/26 07:52:04;;;;;;;17.20;12.63;;;;;;;10.00;100.00;101841.88;5030449;28;20028;-67
2024/01/26 07:54:29;;;;;;;16.45;12.13;;;;;;;10.03;100.00;101852.19;5036351;28;20033;-67
2024/01/26 07:56:55;;;;;;;19.00;12.85;;;;;;;10.08;100.00;101857.91;5041794;28;20126;-67
2024/01/26 07:59:20;;;;;;;14.98;12.23;;;;;;;10.09;100.00;101870.19;5036203;28;20051;-67
2024/01/26 08:01:45;;;;;;;16.75;12.50;;;;;;;10.13;100.00;101876.09;5049225;28;20071;-67
2024/01/26 08:04:11;;;;;;;15.48;12.80;;;;;;;10.14;100.00;101867.97;5040448;28;20036;-67
2024/01/26 08:06:36;;;;;;;14.30;11.88;;;;;;;10.15;100.00;101882.09;5033265;28;20509;-67
2024/01/26 08:09:02;;;;;;;15.18;12.88;;;;;;;10.17;100.00;101883.63;5034601;28;20033;-67
2024/01/26 08:11:28;;;;;;;13.43;11.88;;;;;;;10.21;100.00;101893.00;5041576;28;20406;-67
2024/01/26 08:13:53;;;;;;;13.82;11.18;;;;;;;10.27;100.00;101888.09;5037944;28;20039;-67
2024/01/26 08:16:18;;;;;;;14.45;12.25;;;;;;;10.28;100.00;101890.59;5036361;28;20035;-67
2024/01/26 08:18:44;;;;;;;14.45;12.20;;;;;;;10.25;100.00;101880.28;5040001;28;20574;-67
2024/01/26 08:21:10;;;;;;;13.15;11.68;;;;;;;10.24;100.00;101884.75;5048819;28;20086;-67
2024/01/26 08:23:36;;;;;;;14.68;11.57;;;;;;;10.25;100.00;101890.91;5034954;28;20029;-67
2024/01/26 08:26:02;;;;;;;14.45;12.23;;;;;;;10.21;100.00;101893.00;5039068;28;20551;-67
2024/01/26 08:28:27;;;;;;;15.20;12.73;;;;;;;10.20;100.00;101899.28;5044690;28;20111;-67
2024/01/26 08:30:53;;;;;;;14.70;12.23;;;;;;;10.22;100.00;101902.63;5035557;28;20033;-67
2024/01/26 08:33:18;;;;;;;14.88;12.70;;;;;;;10.24;100.00;101895.38;5033587;28;20060;-67
2024/01/26 08:35:43;;;;;;;16.58;13.40;;;;;;;10.24;100.00;101907.81;5034482;28;20090;-67
2024/01/26 08:38:09;;;;;;;16.70;12.88;;;;;;;10.27;100.00;101907.53;5028418;28;20033;-67
2024/01/26 08:40:34;;;;;;;18.00;14.32;;;;;;;10.25;100.00;101888.25;5024700;28;20044;-67
2024/01/26 08:42:59;;;;;;;16.92;14.07;;;;;;;10.29;100.00;101888.78;5036717;28;20032;-67
2024/01/26 08:45:25;;;;;;;15.25;12.77;;;;;;;10.36;100.00;101884.56;5039163;28;20626;-67
2024/01/26 08:47:51;;;;;;;17.15;13.40;;;;;;;10.42;100.00;101892.00;5043014;28;20589;-67
2024/01/26 08:50:17;;;;;;;18.40;13.02;;;;;;;10.41;100.00;101901.78;5042504;28;20102;-67
2024/01/26 08:52:42;;;;;;;14.05;11.73;;;;;;;10.49;100.00;101882.47;5038944;28;21214;-67
2024/01/26 08:55:08;;;;;;;14.18;11.82;;;;;;;10.54;100.00;101898.78;5040638;28;20025;-67
2024/01/26 08:57:33;;;;;;;14.13;11.60;;;;;;;10.54;100.00;101918.22;5041074;28;20060;-67
2024/01/26 09:00:00;;;;;;;16.88;12.07;;;;;;;10.50;100.00;101905.38;5038996;28;20127;-67
2024/01/26 09:02:25;;;;;;;15.55;11.82;;;;;;;10.43;100.00;101906.94;5041618;28;20021;-67
2024/01/26 09:04:53;;;;;;;16.25;12.13;;;;;;;10.37;100.00;101926.06;5039963;28;20394;-67
2024/01/26 09:07:21;;;;;;;15.50;11.50;;;;;;;10.34;100.00;101951.09;5041097;28;20120;-67
2024/01/26 09:09:46;;;;;;;11.80;8.30;;;;;;;10.28;100.00;101925.13;5038898;28;20041;-67
2024/01/26 09:12:12;;;;;;;8.10;4.93;;;;;;;10.11;100.00;101941.72;5041931;28;20087;-67
2024/01/26 09:14:37;;;;;;;8.32;3.60;;;;;;;10.04;100.00;101946.75;5039553;28;20035;-67
2024/01/26 09:17:03;;;;;;;6.63;3.40;;;;;;;10.03;100.00;101950.38;5037205;28;20033;-67
2024/01/26 09:19:28;;;;;;;6.38;4.07;;;;;;;10.01;100.00;101962.97;5039799;28;20065;-67
2024/01/26 09:21:53;;;;;;;7.57;4.03;;;;;;;9.99;100.00;101974.69;5039142;28;20569;-67
2024/01/26 09:24:19;;;;;;;6.30;2.80;;;;;;;9.93;100.00;101974.28;5038651;28;20028;-67
2024/01/26 09:26:44;;;;;;;7.63;2.63;;;;;;;9.80;100.00;101980.81;5039697;28;20029;-67
2024/01/26 09:29:09;;;;;;;6.32;2.17;;;;;;;9.74;100.00;101998.13;5034696;28;20453;-67
2024/01/26 09:31:35;;;;;;;13.45;2.55;;;;;;;9.67;100.00;101994.34;5037835;28;20565;-67
2024/01/26 09:34:00;;;;;;;6.32;2.25;;;;;;;9.59;100.00;101992.38;5034051;28;20128;-67
2024/01/26 09:36:25;;;;;;;13.13;2.50;;;;;;;9.53;100.00;102021.22;5033525;28;20033;-67
2024/01/26 09:38:51;;;;;;;11.95;2.70;;;;;;;9.54;100.00;102031.72;5037054;28;20033;-67
2024/01/26 09:41:17;;;;;;;15.98;2.67;;;;;;;9.46;100.00;102043.97;5034692;28;20056;-65
2024/01/26 09:43:42;;;;;;;11.90;2.10;;;;;;;9.27;100.00;102047.38;5033206;28;20029;-67
2024/01/26 09:46:09;;;;;;;6.75;1.50;;;;;;;8.99;100.00;102048.91;5034514;28;20115;-67
2024/01/26 09:48:35;;;;;;;10.35;1.70;;;;;;;8.79;100.00;102065.63;5035382;28;20029;-67
2024/01/26 09:51:01;;;;;;;9.32;2.22;;;;;;;8.71;100.00;102091.94;5034301;28;20033;-67
2024/01/26 09:53:29;;;;;;;8.90;1.90;;;;;;;8.66;100.00;102082.53;5033257;28;20035;-67
2024/01/26 09:55:55;;;;;;;12.30;2.17;;;;;;;8.58;100.00;102095.56;5032091;28;21340;-67
2024/01/26 09:58:21;;;;;;;11.15;1.92;;;;;;;8.61;100.00;102108.56;5032572;28;20111;-67
2024/01/26 10:00:46;;;;;;;16.58;2.28;;;;;;;8.61;100.00;102113.00;5034804;28;20029;-67
2024/01/26 10:03:13;;;;;;;11.93;2.30;;;;;;;8.67;100.00;102112.50;5034817;28;20102;-67
2024/01/26 10:05:38;;;;;;;9.85;2.25;;;;;;;8.66;100.00;102121.41;5038237;28;20043;-67
2024/01/26 10:08:10;;;;;;;11.50;2.40;;;;;;;8.73;100.00;102143.81;5035532;28;20405;-67
2024/01/26 10:10:36;;;;;;;8.38;1.95;;;;;;;8.74;100.00;102150.78;5035272;28;20033;-67
2024/01/26 10:13:04;;;;;;;9.02;2.17;;;;;;;8.76;100.00;102140.06;5038309;28;20499;-67
2024/01/26 10:15:29;;;;;;;11.02;2.00;;;;;;;8.75;100.00;102146.31;5036971;28;20069;-67
2024/01/26 10:17:55;;;;;;;13.95;2.17;;;;;;;8.76;100.00;102150.66;5037257;28;20128;-67
2024/01/26 10:20:21;;;;;;;14.50;2.22;;;;;;;8.83;100.00;102157.13;5035190;28;20092;-67
2024/01/26 10:22:47;;;;;;;14.10;2.65;;;;;;;8.81;100.00;102185.53;5037368;28;20029;-67
2024/01/26 10:25:13;;;;;;;14.48;2.25;;;;;;;8.85;100.00;102192.25;5038899;28;20706;-67
2024/01/26 10:27:39;;;;;;;10.82;1.98;;;;;;;8.85;100.00;102194.91;5037291;28;20337;-67
2024/01/26 10:30:05;;;;;;;14.60;2.40;;;;;;;8.86;100.00;102213.31;5037417;28;20471;-67
2024/01/26 10:32:32;;;;;;;9.88;1.83;;;;;;;8.85;100.00;102224.06;5034282;28;20694;-67
2024/01/26 10:34:59;;;;;;;12.60;2.08;;;;;;;8.92;100.00;102223.41;5040672;28;20040;-67
2024/01/26 10:37:34;;;;;;;14.70;2.55;;;;;;;9.00;100.00;102226.31;5035241;28;20064;-67
2024/01/26 10:40:04;;;;;;;11.25;1.75;;;;;;;9.06;100.00;102224.94;5034529;28;20407;-67
2024/01/26 10:42:32;;;;;;;;;;;;;;;9.18;100.00;102233.69;5035442;28;20866;-68
2024/01/26 10:45:00;;;;;;;12.80;2.00;;;;;;;9.14;100.00;102240.19;5037461;28;19924;-67
2024/01/26 10:47:26;;;;;;;12.30;1.83;;;;;;;9.16;100.00;102252.34;5038464;28;20554;-67
2024/01/26 10:49:57;;;;;;;12.48;1.95;;;;;;;9.12;100.00;102268.66;5037009;28;20825;-67
2024/01/26 10:52:23;;;;;;;9.48;2.15;;;;;;;9.06;100.00;102266.50;5037264;28;20044;-67
2024/01/26 10:54:50;;;;;;;17.92;2.25;;;;;;;8.97;100.00;102276.91;5036009;28;20094;-67
2024/01/26 10:57:16;;;;;;;15.70;2.28;;;;;;;8.90;100.00;102269.53;5034776;28;20374;-67
2024/01/26 10:59:43;;;;;;;11.75;2.38;;;;;;;8.80;100.00;102303.91;5036157;28;20075;-67
2024/01/26 11:02:15;;;;;;;9.38;1.80;;;;;;;8.77;99.79;102305.94;5038216;28;20067;-67
2024/01/26 11:04:43;;;;;;;9.30;1.52;;;;;;;8.83;97.71;102310.75;5035270;28;20029;-67